sensor_id;sensor_type;location;lat;lon;timestamp;P1;durP1;ratioP1;P2;durP2;ratioP2
13743;SDS011;6943;52.368;9.966;2023-06-14T00:01:32;5.07;;;3.20;;
13743;SDS011;6943;52.368;9.966;2023-06-14T00:03:59;7.53;;;2.90;;
13743;SDS011;6943;52.368;9.966;2023-06-14T00:06:26;3.70;;;2.60;;
13743;SDS011;6943;52.368;9.966;2023-06-14T00:08:52;3.00;;;2.70;;
13743;SDS011;6943;52.368;9.966;2023-06-14T00:11:19;4.23;;;2.80;;
13743;SDS011;6943;52.368;9.966;2023-06-14T00:13:45;3.20;;;2.90;;
13743;SDS011;6943;52.368;9.966;2023-06-14T00:16:13;2.87;;;2.67;;
13743;SDS011;6943;52.368;9.966;2023-06-14T00:18:41;3.07;;;2.60;;
13743;SDS011;6943;52.368;9.966;2023-06-14T00:21:07;3.37;;;3.00;;
13743;SDS011;6943;52.368;9.966;2023-06-14T00:23:40;4.70;;;3.20;;
13743;SDS011;6943;52.368;9.966;2023-06-14T00:26:05;3.10;;;2.80;;
13743;SDS011;6943;52.368;9.966;2023-06-14T00:28:31;3.23;;;2.83;;
13743;SDS011;6943;52.368;9.966;2023-06-14T00:30:57;3.20;;;3.00;;
13743;SDS011;6943;52.368;9.966;2023-06-14T00:33:26;4.67;;;3.27;;
13743;SDS011;6943;52.368;9.966;2023-06-14T00:35:51;3.10;;;2.70;;
13743;SDS011;6943;52.368;9.966;2023-06-14T00:38:20;4.40;;;3.00;;
13743;SDS011;6943;52.368;9.966;2023-06-14T00:40:46;3.10;;;2.83;;
13743;SDS011;6943;52.368;9.966;2023-06-14T00:43:13;3.10;;;2.53;;
13743;SDS011;6943;52.368;9.966;2023-06-14T00:45:39;4.77;;;3.00;;
13743;SDS011;6943;52.368;9.966;2023-06-14T00:48:04;4.23;;;2.93;;
13743;SDS011;6943;52.368;9.966;2023-06-14T00:50:32;3.37;;;2.80;;
13743;SDS011;6943;52.368;9.966;2023-06-14T00:52:58;7.23;;;3.03;;
13743;SDS011;6943;52.368;9.966;2023-06-14T00:55:24;3.03;;;2.60;;
13743;SDS011;6943;52.368;9.966;2023-06-14T00:57:50;3.93;;;2.67;;
13743;SDS011;6943;52.368;9.966;2023-06-14T01:00:16;4.13;;;2.60;;
13743;SDS011;6943;52.368;9.966;2023-06-14T01:02:42;2.90;;;2.60;;
13743;SDS011;6943;52.368;9.966;2023-06-14T01:05:08;4.13;;;2.60;;
13743;SDS011;6943;52.368;9.966;2023-06-14T01:07:46;3.13;;;2.87;;
13743;SDS011;6943;52.368;9.966;2023-06-14T01:13:43;3.50;;;2.77;;
13743;SDS011;6943;52.368;9.966;2023-06-14T01:15:37;4.77;;;2.77;;
13743;SDS011;6943;52.368;9.966;2023-06-14T01:18:03;6.87;;;2.97;;
13743;SDS011;6943;52.368;9.966;2023-06-14T01:20:31;3.80;;;2.70;;
13743;SDS011;6943;52.368;9.966;2023-06-14T01:22:58;3.03;;;2.50;;
13743;SDS011;6943;52.368;9.966;2023-06-14T01:25:24;5.47;;;2.70;;
13743;SDS011;6943;52.368;9.966;2023-06-14T01:27:52;2.93;;;2.60;;
13743;SDS011;6943;52.368;9.966;2023-06-14T01:30:20;3.93;;;2.40;;
13743;SDS011;6943;52.368;9.966;2023-06-14T01:32:46;5.53;;;2.70;;
13743;SDS011;6943;52.368;9.966;2023-06-14T01:35:12;3.53;;;2.53;;
13743;SDS011;6943;52.368;9.966;2023-06-14T01:37:39;4.60;;;3.13;;
13743;SDS011;6943;52.368;9.966;2023-06-14T01:40:06;4.97;;;2.83;;
13743;SDS011;6943;52.368;9.966;2023-06-14T01:42:33;3.20;;;2.60;;
13743;SDS011;6943;52.368;9.966;2023-06-14T01:45:02;3.53;;;2.57;;
13743;SDS011;6943;52.368;9.966;2023-06-14T01:47:28;4.60;;;3.03;;
13743;SDS011;6943;52.368;9.966;2023-06-14T01:49:54;4.60;;;2.47;;
13743;SDS011;6943;52.368;9.966;2023-06-14T01:52:20;2.87;;;2.40;;
13743;SDS011;6943;52.368;9.966;2023-06-14T01:54:47;3.10;;;2.73;;
13743;SDS011;6943;52.368;9.966;2023-06-14T01:57:14;7.17;;;2.67;;
13743;SDS011;6943;52.368;9.966;2023-06-14T01:59:40;4.23;;;2.80;;
13743;SDS011;6943;52.368;9.966;2023-06-14T02:02:06;3.30;;;2.50;;
13743;SDS011;6943;52.368;9.966;2023-06-14T02:04:34;2.83;;;2.53;;
13743;SDS011;6943;52.368;9.966;2023-06-14T02:07:00;3.47;;;2.60;;
13743;SDS011;6943;52.368;9.966;2023-06-14T02:09:26;7.47;;;2.73;;
13743;SDS011;6943;52.368;9.966;2023-06-14T02:11:51;3.13;;;2.83;;
13743;SDS011;6943;52.368;9.966;2023-06-14T02:14:17;3.87;;;2.40;;
13743;SDS011;6943;52.368;9.966;2023-06-14T02:16:43;3.53;;;2.97;;
13743;SDS011;6943;52.368;9.966;2023-06-14T02:19:14;3.57;;;2.73;;
13743;SDS011;6943;52.368;9.966;2023-06-14T02:21:40;5.70;;;2.70;;
13743;SDS011;6943;52.368;9.966;2023-06-14T02:24:06;3.40;;;3.00;;
13743;SDS011;6943;52.368;9.966;2023-06-14T02:26:32;4.50;;;2.70;;
13743;SDS011;6943;52.368;9.966;2023-06-14T02:28:58;3.20;;;2.90;;
13743;SDS011;6943;52.368;9.966;2023-06-14T02:31:24;4.00;;;2.97;;
13743;SDS011;6943;52.368;9.966;2023-06-14T02:33:50;3.50;;;2.83;;
13743;SDS011;6943;52.368;9.966;2023-06-14T02:36:16;4.63;;;3.20;;
13743;SDS011;6943;52.368;9.966;2023-06-14T02:38:42;3.67;;;2.70;;
13743;SDS011;6943;52.368;9.966;2023-06-14T02:41:08;3.43;;;2.80;;
13743;SDS011;6943;52.368;9.966;2023-06-14T02:43:34;5.47;;;2.97;;
13743;SDS011;6943;52.368;9.966;2023-06-14T02:46:01;6.60;;;2.70;;
13743;SDS011;6943;52.368;9.966;2023-06-14T02:48:27;3.43;;;2.60;;
13743;SDS011;6943;52.368;9.966;2023-06-14T02:50:53;6.27;;;2.50;;
13743;SDS011;6943;52.368;9.966;2023-06-14T02:53:19;3.83;;;2.77;;
13743;SDS011;6943;52.368;9.966;2023-06-14T02:55:45;5.37;;;2.93;;
13743;SDS011;6943;52.368;9.966;2023-06-14T02:58:11;3.57;;;2.90;;
13743;SDS011;6943;52.368;9.966;2023-06-14T03:00:38;3.97;;;2.90;;
13743;SDS011;6943;52.368;9.966;2023-06-14T03:03:05;3.83;;;2.77;;
13743;SDS011;6943;52.368;9.966;2023-06-14T03:05:38;5.77;;;2.90;;
13743;SDS011;6943;52.368;9.966;2023-06-14T03:08:05;3.57;;;2.90;;
13743;SDS011;6943;52.368;9.966;2023-06-14T03:10:32;5.83;;;2.50;;
13743;SDS011;6943;52.368;9.966;2023-06-14T03:12:57;3.47;;;3.10;;
13743;SDS011;6943;52.368;9.966;2023-06-14T03:15:23;3.43;;;2.83;;
13743;SDS011;6943;52.368;9.966;2023-06-14T03:17:49;3.77;;;3.00;;
13743;SDS011;6943;52.368;9.966;2023-06-14T03:20:15;4.63;;;2.73;;
13743;SDS011;6943;52.368;9.966;2023-06-14T03:22:42;3.70;;;2.83;;
13743;SDS011;6943;52.368;9.966;2023-06-14T03:25:10;3.33;;;2.93;;
13743;SDS011;6943;52.368;9.966;2023-06-14T03:27:37;3.27;;;2.80;;
13743;SDS011;6943;52.368;9.966;2023-06-14T03:30:05;2.80;;;2.60;;
13743;SDS011;6943;52.368;9.966;2023-06-14T03:32:31;3.67;;;2.77;;
13743;SDS011;6943;52.368;9.966;2023-06-14T03:34:58;3.43;;;2.70;;
13743;SDS011;6943;52.368;9.966;2023-06-14T03:37:24;4.43;;;2.80;;
13743;SDS011;6943;52.368;9.966;2023-06-14T03:39:49;3.37;;;2.70;;
13743;SDS011;6943;52.368;9.966;2023-06-14T03:42:15;5.07;;;2.73;;
13743;SDS011;6943;52.368;9.966;2023-06-14T03:44:41;5.33;;;2.80;;
13743;SDS011;6943;52.368;9.966;2023-06-14T03:47:07;4.63;;;2.77;;
13743;SDS011;6943;52.368;9.966;2023-06-14T03:49:33;3.23;;;2.80;;
13743;SDS011;6943;52.368;9.966;2023-06-14T03:51:59;3.73;;;3.10;;
13743;SDS011;6943;52.368;9.966;2023-06-14T03:54:27;4.00;;;3.00;;
13743;SDS011;6943;52.368;9.966;2023-06-14T03:56:53;6.60;;;3.37;;
13743;SDS011;6943;52.368;9.966;2023-06-14T03:59:19;3.10;;;2.80;;
13743;SDS011;6943;52.368;9.966;2023-06-14T04:01:46;3.40;;;2.83;;
13743;SDS011;6943;52.368;9.966;2023-06-14T04:04:12;5.57;;;3.13;;
13743;SDS011;6943;52.368;9.966;2023-06-14T04:06:38;3.90;;;2.67;;
13743;SDS011;6943;52.368;9.966;2023-06-14T04:09:05;2.67;;;2.47;;
13743;SDS011;6943;52.368;9.966;2023-06-14T04:11:31;3.00;;;2.50;;
13743;SDS011;6943;52.368;9.966;2023-06-14T04:13:57;3.57;;;3.00;;
13743;SDS011;6943;52.368;9.966;2023-06-14T04:16:23;4.33;;;2.70;;
13743;SDS011;6943;52.368;9.966;2023-06-14T04:18:49;5.30;;;2.97;;
13743;SDS011;6943;52.368;9.966;2023-06-14T04:21:17;4.43;;;3.00;;
13743;SDS011;6943;52.368;9.966;2023-06-14T04:23:43;6.43;;;2.83;;
13743;SDS011;6943;52.368;9.966;2023-06-14T04:26:09;4.50;;;2.77;;
13743;SDS011;6943;52.368;9.966;2023-06-14T04:28:35;3.20;;;2.30;;
13743;SDS011;6943;52.368;9.966;2023-06-14T04:31:05;5.10;;;2.83;;
13743;SDS011;6943;52.368;9.966;2023-06-14T04:33:33;3.57;;;2.67;;
13743;SDS011;6943;52.368;9.966;2023-06-14T04:36:07;4.40;;;2.60;;
13743;SDS011;6943;52.368;9.966;2023-06-14T04:38:33;3.90;;;2.07;;
13743;SDS011;6943;52.368;9.966;2023-06-14T04:40:59;6.97;;;2.87;;
13743;SDS011;6943;52.368;9.966;2023-06-14T04:43:27;4.83;;;2.50;;
13743;SDS011;6943;52.368;9.966;2023-06-14T04:45:53;6.37;;;2.77;;
13743;SDS011;6943;52.368;9.966;2023-06-14T04:48:21;5.03;;;2.50;;
13743;SDS011;6943;52.368;9.966;2023-06-14T04:50:47;3.27;;;2.50;;
13743;SDS011;6943;52.368;9.966;2023-06-14T04:53:13;2.50;;;2.30;;
13743;SDS011;6943;52.368;9.966;2023-06-14T04:55:39;2.47;;;2.20;;
13743;SDS011;6943;52.368;9.966;2023-06-14T04:58:09;3.60;;;2.10;;
13743;SDS011;6943;52.368;9.966;2023-06-14T05:00:37;5.10;;;2.67;;
13743;SDS011;6943;52.368;9.966;2023-06-14T05:03:03;3.33;;;2.57;;
13743;SDS011;6943;52.368;9.966;2023-06-14T05:05:30;4.03;;;2.40;;
13743;SDS011;6943;52.368;9.966;2023-06-14T05:07:57;2.70;;;2.40;;
13743;SDS011;6943;52.368;9.966;2023-06-14T05:10:23;2.60;;;2.33;;
13743;SDS011;6943;52.368;9.966;2023-06-14T05:12:48;6.20;;;2.40;;
13743;SDS011;6943;52.368;9.966;2023-06-14T05:15:15;2.60;;;2.40;;
13743;SDS011;6943;52.368;9.966;2023-06-14T05:17:41;3.43;;;2.47;;
13743;SDS011;6943;52.368;9.966;2023-06-14T05:20:07;3.93;;;2.50;;
13743;SDS011;6943;52.368;9.966;2023-06-14T05:22:35;2.40;;;2.20;;
13743;SDS011;6943;52.368;9.966;2023-06-14T05:25:01;3.70;;;2.40;;
13743;SDS011;6943;52.368;9.966;2023-06-14T05:27:27;5.33;;;2.60;;
13743;SDS011;6943;52.368;9.966;2023-06-14T05:29:53;2.50;;;2.30;;
13743;SDS011;6943;52.368;9.966;2023-06-14T05:32:23;3.03;;;2.20;;
13743;SDS011;6943;52.368;9.966;2023-06-14T05:34:49;4.77;;;2.60;;
13743;SDS011;6943;52.368;9.966;2023-06-14T05:37:15;2.63;;;2.43;;
13743;SDS011;6943;52.368;9.966;2023-06-14T05:39:42;6.90;;;2.60;;
13743;SDS011;6943;52.368;9.966;2023-06-14T05:42:08;3.57;;;2.30;;
13743;SDS011;6943;52.368;9.966;2023-06-14T05:44:34;5.17;;;2.20;;
13743;SDS011;6943;52.368;9.966;2023-06-14T05:47:00;3.60;;;2.70;;
13743;SDS011;6943;52.368;9.966;2023-06-14T05:49:26;4.93;;;2.53;;
13743;SDS011;6943;52.368;9.966;2023-06-14T05:51:52;4.23;;;2.37;;
13743;SDS011;6943;52.368;9.966;2023-06-14T05:54:18;3.33;;;2.10;;
13743;SDS011;6943;52.368;9.966;2023-06-14T05:56:44;3.37;;;2.60;;
13743;SDS011;6943;52.368;9.966;2023-06-14T05:59:09;2.60;;;2.23;;
13743;SDS011;6943;52.368;9.966;2023-06-14T06:01:36;3.50;;;2.30;;
13743;SDS011;6943;52.368;9.966;2023-06-14T06:04:02;3.03;;;2.30;;
13743;SDS011;6943;52.368;9.966;2023-06-14T06:06:28;4.30;;;2.50;;
13743;SDS011;6943;52.368;9.966;2023-06-14T06:08:54;4.03;;;2.57;;
13743;SDS011;6943;52.368;9.966;2023-06-14T06:11:20;3.20;;;2.70;;
13743;SDS011;6943;52.368;9.966;2023-06-14T06:13:46;5.87;;;2.63;;
13743;SDS011;6943;52.368;9.966;2023-06-14T06:16:12;2.75;;;2.55;;
13743;SDS011;6943;52.368;9.966;2023-06-14T06:18:38;4.47;;;2.78;;
13743;SDS011;6943;52.368;9.966;2023-06-14T06:21:04;3.72;;;2.97;;
13743;SDS011;6943;52.368;9.966;2023-06-14T06:23:30;4.90;;;2.50;;
13743;SDS011;6943;52.368;9.966;2023-06-14T06:25:56;4.25;;;2.58;;
13743;SDS011;6943;52.368;9.966;2023-06-14T06:28:22;4.97;;;2.78;;
13743;SDS011;6943;52.368;9.966;2023-06-14T06:30:48;4.72;;;2.78;;
13743;SDS011;6943;52.368;9.966;2023-06-14T06:33:15;6.22;;;2.97;;
13743;SDS011;6943;52.368;9.966;2023-06-14T06:35:42;4.05;;;2.47;;
13743;SDS011;6943;52.368;9.966;2023-06-14T06:38:08;4.00;;;2.90;;
13743;SDS011;6943;52.368;9.966;2023-06-14T06:40:34;2.80;;;2.42;;
13743;SDS011;6943;52.368;9.966;2023-06-14T06:43:01;3.67;;;2.65;;
13743;SDS011;6943;52.368;9.966;2023-06-14T06:45:28;2.92;;;2.63;;
13743;SDS011;6943;52.368;9.966;2023-06-14T06:47:54;3.47;;;2.88;;
13743;SDS011;6943;52.368;9.966;2023-06-14T06:50:20;4.10;;;2.50;;
13743;SDS011;6943;52.368;9.966;2023-06-14T06:52:49;2.70;;;2.40;;
13743;SDS011;6943;52.368;9.966;2023-06-14T06:55:16;2.60;;;2.40;;
13743;SDS011;6943;52.368;9.966;2023-06-14T06:57:43;2.83;;;2.63;;
13743;SDS011;6943;52.368;9.966;2023-06-14T07:00:09;3.85;;;2.58;;
13743;SDS011;6943;52.368;9.966;2023-06-14T07:02:36;5.38;;;2.67;;
13743;SDS011;6943;52.368;9.966;2023-06-14T07:05:02;3.90;;;2.80;;
13743;SDS011;6943;52.368;9.966;2023-06-14T07:07:29;2.63;;;2.17;;
13743;SDS011;6943;52.368;9.966;2023-06-14T07:09:55;3.22;;;2.60;;
13743;SDS011;6943;52.368;9.966;2023-06-14T07:12:22;2.85;;;2.58;;
13743;SDS011;6943;52.368;9.966;2023-06-14T07:14:48;2.92;;;2.63;;
13743;SDS011;6943;52.368;9.966;2023-06-14T07:17:14;2.67;;;2.35;;
13743;SDS011;6943;52.368;9.966;2023-06-14T07:19:40;3.78;;;2.55;;
13743;SDS011;6943;52.368;9.966;2023-06-14T07:22:06;4.45;;;2.67;;
13743;SDS011;6943;52.368;9.966;2023-06-14T07:24:32;3.38;;;2.55;;
13743;SDS011;6943;52.368;9.966;2023-06-14T07:26:59;5.93;;;2.80;;
13743;SDS011;6943;52.368;9.966;2023-06-14T07:29:26;4.20;;;2.33;;
13743;SDS011;6943;52.368;9.966;2023-06-14T07:31:52;2.80;;;2.60;;
13743;SDS011;6943;52.368;9.966;2023-06-14T07:34:18;3.28;;;2.25;;
13743;SDS011;6943;52.368;9.966;2023-06-14T07:36:44;3.45;;;2.80;;
13743;SDS011;6943;52.368;9.966;2023-06-14T07:39:10;3.30;;;2.05;;
13743;SDS011;6943;52.368;9.966;2023-06-14T07:41:36;3.15;;;2.03;;
13743;SDS011;6943;52.368;9.966;2023-06-14T07:44:02;3.33;;;2.40;;
13743;SDS011;6943;52.368;9.966;2023-06-14T07:46:28;2.40;;;2.20;;
13743;SDS011;6943;52.368;9.966;2023-06-14T07:48:55;3.00;;;2.25;;
13743;SDS011;6943;52.368;9.966;2023-06-14T07:51:20;5.05;;;2.38;;
13743;SDS011;6943;52.368;9.966;2023-06-14T07:53:48;2.40;;;2.15;;
13743;SDS011;6943;52.368;9.966;2023-06-14T07:56:14;5.07;;;2.53;;
13743;SDS011;6943;52.368;9.966;2023-06-14T07:58:40;4.38;;;2.40;;
13743;SDS011;6943;52.368;9.966;2023-06-14T08:01:06;4.28;;;2.60;;
13743;SDS011;6943;52.368;9.966;2023-06-14T08:03:33;2.95;;;2.30;;
13743;SDS011;6943;52.368;9.966;2023-06-14T08:05:59;4.72;;;2.33;;
13743;SDS011;6943;52.368;9.966;2023-06-14T08:08:25;2.50;;;2.30;;
13743;SDS011;6943;52.368;9.966;2023-06-14T08:10:51;4.03;;;2.47;;
13743;SDS011;6943;52.368;9.966;2023-06-14T08:13:17;4.68;;;2.58;;
13743;SDS011;6943;52.368;9.966;2023-06-14T08:15:43;5.22;;;2.67;;
13743;SDS011;6943;52.368;9.966;2023-06-14T08:18:09;3.42;;;2.70;;
13743;SDS011;6943;52.368;9.966;2023-06-14T08:20:35;2.78;;;2.10;;
13743;SDS011;6943;52.368;9.966;2023-06-14T08:23:02;3.75;;;2.10;;
13743;SDS011;6943;52.368;9.966;2023-06-14T08:25:29;3.42;;;2.42;;
13743;SDS011;6943;52.368;9.966;2023-06-14T08:27:55;2.85;;;2.50;;
13743;SDS011;6943;52.368;9.966;2023-06-14T08:30:21;2.58;;;2.38;;
13743;SDS011;6943;52.368;9.966;2023-06-14T08:32:47;2.47;;;2.28;;
13743;SDS011;6943;52.368;9.966;2023-06-14T08:35:13;3.33;;;2.15;;
13743;SDS011;6943;52.368;9.966;2023-06-14T08:37:39;2.72;;;2.13;;
13743;SDS011;6943;52.368;9.966;2023-06-14T08:40:12;3.05;;;2.38;;
13743;SDS011;6943;52.368;9.966;2023-06-14T08:42:44;3.17;;;2.40;;
13743;SDS011;6943;52.368;9.966;2023-06-14T08:45:10;3.10;;;2.78;;
13743;SDS011;6943;52.368;9.966;2023-06-14T08:47:36;2.60;;;2.33;;
13743;SDS011;6943;52.368;9.966;2023-06-14T08:50:02;2.17;;;2.08;;
13743;SDS011;6943;52.368;9.966;2023-06-14T08:52:29;3.22;;;2.42;;
13743;SDS011;6943;52.368;9.966;2023-06-14T08:54:58;4.22;;;2.58;;
13743;SDS011;6943;52.368;9.966;2023-06-14T08:57:25;3.65;;;2.72;;
13743;SDS011;6943;52.368;9.966;2023-06-14T08:59:55;2.67;;;2.15;;
13743;SDS011;6943;52.368;9.966;2023-06-14T09:02:21;2.80;;;2.60;;
13743;SDS011;6943;52.368;9.966;2023-06-14T09:04:47;2.97;;;2.47;;
13743;SDS011;6943;52.368;9.966;2023-06-14T09:07:14;2.47;;;2.23;;
13743;SDS011;6943;52.368;9.966;2023-06-14T09:09:41;2.37;;;2.17;;
13743;SDS011;6943;52.368;9.966;2023-06-14T09:12:10;2.47;;;2.27;;
13743;SDS011;6943;52.368;9.966;2023-06-14T09:14:37;2.20;;;2.00;;
13743;SDS011;6943;52.368;9.966;2023-06-14T09:17:05;4.20;;;2.37;;
13743;SDS011;6943;52.368;9.966;2023-06-14T09:19:31;3.50;;;2.20;;
13743;SDS011;6943;52.368;9.966;2023-06-14T09:21:57;2.67;;;2.47;;
13743;SDS011;6943;52.368;9.966;2023-06-14T09:24:26;4.80;;;2.60;;
13743;SDS011;6943;52.368;9.966;2023-06-14T09:26:53;5.70;;;2.20;;
13743;SDS011;6943;52.368;9.966;2023-06-14T09:29:19;5.70;;;2.80;;
13743;SDS011;6943;52.368;9.966;2023-06-14T09:31:48;4.10;;;2.37;;
13743;SDS011;6943;52.368;9.966;2023-06-14T09:34:13;4.37;;;2.30;;
13743;SDS011;6943;52.368;9.966;2023-06-14T09:36:44;3.03;;;2.17;;
13743;SDS011;6943;52.368;9.966;2023-06-14T09:39:10;2.70;;;2.40;;
13743;SDS011;6943;52.368;9.966;2023-06-14T09:41:37;2.97;;;2.40;;
13743;SDS011;6943;52.368;9.966;2023-06-14T09:44:04;3.30;;;2.33;;
13743;SDS011;6943;52.368;9.966;2023-06-14T09:46:30;3.97;;;2.20;;
13743;SDS011;6943;52.368;9.966;2023-06-14T09:48:59;3.47;;;2.50;;
13743;SDS011;6943;52.368;9.966;2023-06-14T09:51:25;4.13;;;2.20;;
13743;SDS011;6943;52.368;9.966;2023-06-14T09:53:52;3.27;;;2.63;;
13743;SDS011;6943;52.368;9.966;2023-06-14T09:56:21;3.87;;;2.17;;
13743;SDS011;6943;52.368;9.966;2023-06-14T09:58:47;3.20;;;2.50;;
13743;SDS011;6943;52.368;9.966;2023-06-14T10:01:14;3.10;;;2.80;;
13743;SDS011;6943;52.368;9.966;2023-06-14T10:03:40;3.00;;;2.23;;
13743;SDS011;6943;52.368;9.966;2023-06-14T10:06:08;2.80;;;2.50;;
13743;SDS011;6943;52.368;9.966;2023-06-14T10:08:34;3.53;;;2.30;;
13743;SDS011;6943;52.368;9.966;2023-06-14T10:11:02;2.30;;;2.10;;
13743;SDS011;6943;52.368;9.966;2023-06-14T10:13:28;4.07;;;2.53;;
13743;SDS011;6943;52.368;9.966;2023-06-14T10:16:09;6.17;;;2.60;;
13743;SDS011;6943;52.368;9.966;2023-06-14T10:18:42;4.87;;;2.97;;
13743;SDS011;6943;52.368;9.966;2023-06-14T10:21:28;5.57;;;3.07;;
13743;SDS011;6943;52.368;9.966;2023-06-14T10:23:56;4.93;;;2.97;;
13743;SDS011;6943;52.368;9.966;2023-06-14T10:26:23;5.23;;;2.50;;
13743;SDS011;6943;52.368;9.966;2023-06-14T10:31:46;3.03;;;2.73;;
13743;SDS011;6943;52.368;9.966;2023-06-14T10:34:12;3.00;;;2.80;;
13743;SDS011;6943;52.368;9.966;2023-06-14T10:36:50;3.70;;;2.57;;
13743;SDS011;6943;52.368;9.966;2023-06-14T10:39:26;3.43;;;2.40;;
13743;SDS011;6943;52.368;9.966;2023-06-14T10:41:52;3.47;;;2.90;;
13743;SDS011;6943;52.368;9.966;2023-06-14T10:46:48;4.90;;;2.57;;
13743;SDS011;6943;52.368;9.966;2023-06-14T10:49:20;4.77;;;2.93;;
13743;SDS011;6943;52.368;9.966;2023-06-14T10:52:05;5.03;;;3.30;;
13743;SDS011;6943;52.368;9.966;2023-06-14T10:54:34;2.87;;;2.67;;
13743;SDS011;6943;52.368;9.966;2023-06-14T10:57:00;3.83;;;2.87;;
13743;SDS011;6943;52.368;9.966;2023-06-14T10:59:26;3.97;;;2.43;;
13743;SDS011;6943;52.368;9.966;2023-06-14T11:02:06;3.00;;;2.63;;
13743;SDS011;6943;52.368;9.966;2023-06-14T11:04:52;4.00;;;3.00;;
13743;SDS011;6943;52.368;9.966;2023-06-14T11:07:27;3.73;;;2.83;;
13743;SDS011;6943;52.368;9.966;2023-06-14T11:12:45;3.60;;;2.60;;
13743;SDS011;6943;52.368;9.966;2023-06-14T11:15:13;4.93;;;2.90;;
13743;SDS011;6943;52.368;9.966;2023-06-14T11:17:39;3.50;;;2.73;;
13743;SDS011;6943;52.368;9.966;2023-06-14T11:20:08;3.30;;;3.00;;
13743;SDS011;6943;52.368;9.966;2023-06-14T11:22:44;5.67;;;3.20;;
13743;SDS011;6943;52.368;9.966;2023-06-14T11:25:11;4.57;;;3.03;;
13743;SDS011;6943;52.368;9.966;2023-06-14T11:27:37;5.23;;;3.00;;
13743;SDS011;6943;52.368;9.966;2023-06-14T11:30:03;3.37;;;2.80;;
13743;SDS011;6943;52.368;9.966;2023-06-14T11:32:31;2.97;;;2.77;;
13743;SDS011;6943;52.368;9.966;2023-06-14T11:34:57;6.33;;;2.80;;
13743;SDS011;6943;52.368;9.966;2023-06-14T11:37:24;3.13;;;2.90;;
13743;SDS011;6943;52.368;9.966;2023-06-14T11:39:51;4.37;;;3.13;;
13743;SDS011;6943;52.368;9.966;2023-06-14T11:42:17;7.10;;;3.10;;
13743;SDS011;6943;52.368;9.966;2023-06-14T11:44:45;6.70;;;3.20;;
13743;SDS011;6943;52.368;9.966;2023-06-14T11:47:12;4.07;;;3.67;;
13743;SDS011;6943;52.368;9.966;2023-06-14T11:49:38;4.37;;;3.00;;
13743;SDS011;6943;52.368;9.966;2023-06-14T11:52:04;3.80;;;2.83;;
13743;SDS011;6943;52.368;9.966;2023-06-14T11:54:31;5.30;;;2.90;;
13743;SDS011;6943;52.368;9.966;2023-06-14T11:56:57;3.63;;;3.33;;
13743;SDS011;6943;52.368;9.966;2023-06-14T11:59:24;6.88;;;3.10;;
13743;SDS011;6943;52.368;9.966;2023-06-14T12:01:50;5.70;;;3.27;;
13743;SDS011;6943;52.368;9.966;2023-06-14T12:04:24;8.17;;;3.67;;
13743;SDS011;6943;52.368;9.966;2023-06-14T12:06:50;4.87;;;3.60;;
13743;SDS011;6943;52.368;9.966;2023-06-14T12:09:18;6.20;;;3.80;;
13743;SDS011;6943;52.368;9.966;2023-06-14T12:11:44;3.80;;;3.50;;
13743;SDS011;6943;52.368;9.966;2023-06-14T12:14:11;5.93;;;3.50;;
13743;SDS011;6943;52.368;9.966;2023-06-14T12:16:37;3.87;;;3.47;;
13743;SDS011;6943;52.368;9.966;2023-06-14T12:19:25;4.43;;;3.20;;
13743;SDS011;6943;52.368;9.966;2023-06-14T12:21:51;5.20;;;3.40;;
13743;SDS011;6943;52.368;9.966;2023-06-14T12:24:17;7.05;;;3.60;;
13743;SDS011;6943;52.368;9.966;2023-06-14T12:26:43;5.75;;;3.70;;
13743;SDS011;6943;52.368;9.966;2023-06-14T12:29:09;7.47;;;3.40;;
13743;SDS011;6943;52.368;9.966;2023-06-14T12:31:37;5.00;;;3.13;;
13743;SDS011;6943;52.368;9.966;2023-06-14T12:34:03;6.07;;;3.58;;
13743;SDS011;6943;52.368;9.966;2023-06-14T12:36:29;6.97;;;3.63;;
13743;SDS011;6943;52.368;9.966;2023-06-14T12:38:56;4.25;;;3.40;;
13743;SDS011;6943;52.368;9.966;2023-06-14T12:41:22;4.87;;;3.57;;
13743;SDS011;6943;52.368;9.966;2023-06-14T12:43:49;6.83;;;3.80;;
13743;SDS011;6943;52.368;9.966;2023-06-14T12:46:15;4.72;;;3.40;;
13743;SDS011;6943;52.368;9.966;2023-06-14T12:48:41;4.47;;;3.57;;
13743;SDS011;6943;52.368;9.966;2023-06-14T12:51:07;8.13;;;3.67;;
13743;SDS011;6943;52.368;9.966;2023-06-14T12:53:33;4.93;;;3.50;;
13743;SDS011;6943;52.368;9.966;2023-06-14T12:55:59;5.32;;;3.35;;
13743;SDS011;6943;52.368;9.966;2023-06-14T12:58:25;4.18;;;3.47;;
13743;SDS011;6943;52.368;9.966;2023-06-14T13:00:51;3.50;;;3.20;;
13743;SDS011;6943;52.368;9.966;2023-06-14T13:03:17;4.03;;;3.13;;
13743;SDS011;6943;52.368;9.966;2023-06-14T13:05:43;6.47;;;3.58;;
13743;SDS011;6943;52.368;9.966;2023-06-14T13:08:08;4.57;;;3.83;;
13743;SDS011;6943;52.368;9.966;2023-06-14T13:10:35;6.35;;;3.78;;
13743;SDS011;6943;52.368;9.966;2023-06-14T13:13:01;8.60;;;3.58;;
13743;SDS011;6943;52.368;9.966;2023-06-14T13:15:27;7.60;;;3.80;;
13743;SDS011;6943;52.368;9.966;2023-06-14T13:17:53;6.50;;;3.45;;
13743;SDS011;6943;52.368;9.966;2023-06-14T13:20:20;6.32;;;3.00;;
13743;SDS011;6943;52.368;9.966;2023-06-14T13:22:46;5.43;;;3.05;;
13743;SDS011;6943;52.368;9.966;2023-06-14T13:25:12;4.97;;;3.83;;
13743;SDS011;6943;52.368;9.966;2023-06-14T13:27:37;6.90;;;3.22;;
13743;SDS011;6943;52.368;9.966;2023-06-14T13:30:04;4.20;;;3.63;;
13743;SDS011;6943;52.368;9.966;2023-06-14T13:32:30;6.17;;;3.93;;
13743;SDS011;6943;52.368;9.966;2023-06-14T13:34:56;4.47;;;3.63;;
13743;SDS011;6943;52.368;9.966;2023-06-14T13:37:22;5.17;;;3.50;;
13743;SDS011;6943;52.368;9.966;2023-06-14T13:39:49;5.90;;;3.87;;
13743;SDS011;6943;52.368;9.966;2023-06-14T13:42:15;4.53;;;3.20;;
13743;SDS011;6943;52.368;9.966;2023-06-14T13:44:41;8.10;;;3.87;;
13743;SDS011;6943;52.368;9.966;2023-06-14T13:47:07;4.70;;;3.33;;
13743;SDS011;6943;52.368;9.966;2023-06-14T13:49:33;5.60;;;3.70;;
13743;SDS011;6943;52.368;9.966;2023-06-14T13:52:00;3.83;;;3.47;;
13743;SDS011;6943;52.368;9.966;2023-06-14T13:54:26;5.85;;;3.47;;
13743;SDS011;6943;52.368;9.966;2023-06-14T13:56:52;7.97;;;3.28;;
13743;SDS011;6943;52.368;9.966;2023-06-14T13:59:18;6.18;;;3.65;;
13743;SDS011;6943;52.368;9.966;2023-06-14T14:01:44;8.05;;;3.83;;
13743;SDS011;6943;52.368;9.966;2023-06-14T14:04:10;7.28;;;3.58;;
13743;SDS011;6943;52.368;9.966;2023-06-14T14:06:37;8.68;;;3.45;;
13743;SDS011;6943;52.368;9.966;2023-06-14T14:09:03;7.32;;;3.70;;
13743;SDS011;6943;52.368;9.966;2023-06-14T14:11:28;6.15;;;3.58;;
13743;SDS011;6943;52.368;9.966;2023-06-14T14:13:58;4.28;;;3.55;;
13743;SDS011;6943;52.368;9.966;2023-06-14T14:16:24;4.70;;;3.55;;
13743;SDS011;6943;52.368;9.966;2023-06-14T14:18:50;5.13;;;3.72;;
13743;SDS011;6943;52.368;9.966;2023-06-14T14:21:34;5.10;;;3.92;;
13743;SDS011;6943;52.368;9.966;2023-06-14T14:24:02;5.20;;;4.00;;
13743;SDS011;6943;52.368;9.966;2023-06-14T14:26:28;3.88;;;3.25;;
13743;SDS011;6943;52.368;9.966;2023-06-14T14:28:56;4.30;;;3.50;;
13743;SDS011;6943;52.368;9.966;2023-06-14T14:31:22;6.50;;;3.80;;
13743;SDS011;6943;52.368;9.966;2023-06-14T14:33:48;6.45;;;3.35;;
13743;SDS011;6943;52.368;9.966;2023-06-14T14:36:14;6.38;;;3.75;;
13743;SDS011;6943;52.368;9.966;2023-06-14T14:38:40;7.35;;;3.20;;
13743;SDS011;6943;52.368;9.966;2023-06-14T14:41:06;4.30;;;3.58;;
13743;SDS011;6943;52.368;9.966;2023-06-14T14:43:32;5.97;;;3.75;;
13743;SDS011;6943;52.368;9.966;2023-06-14T14:45:58;5.97;;;3.78;;
13743;SDS011;6943;52.368;9.966;2023-06-14T14:48:24;4.25;;;3.30;;
13743;SDS011;6943;52.368;9.966;2023-06-14T14:50:50;6.93;;;3.70;;
13743;SDS011;6943;52.368;9.966;2023-06-14T14:53:16;6.35;;;3.80;;
13743;SDS011;6943;52.368;9.966;2023-06-14T14:55:42;7.53;;;3.75;;
13743;SDS011;6943;52.368;9.966;2023-06-14T14:58:08;5.78;;;3.42;;
13743;SDS011;6943;52.368;9.966;2023-06-14T15:00:34;4.72;;;3.75;;
13743;SDS011;6943;52.368;9.966;2023-06-14T15:03:00;6.38;;;4.35;;
13743;SDS011;6943;52.368;9.966;2023-06-14T15:05:26;4.77;;;3.90;;
13743;SDS011;6943;52.368;9.966;2023-06-14T15:07:52;8.00;;;3.60;;
13743;SDS011;6943;52.368;9.966;2023-06-14T15:10:18;4.85;;;3.88;;